Duanesburg, NY (12056)

07:24 EDT 25. Srpen 2016 (GMT -0400)
Mariaville, NY | | Change Station

Výška 1188 ft 42.83 °N, 74.16 °W | Updated 12 seconds ago

Mostly Cloudy
Skoro zataženo
68.4 °F
Pocit jako 68.4 °F
S
5.8
Vítr proměnlivý Vítr od JZ
Gusts 5.8 mil/h

Dnes
Vysoké -- | Nízké -- °F
--% Možnost srážek
Včera
Vysoké -- | Nízké -- °F
Precip. -- inčů
Tlak 30.05 inčů
Viditelnost 10.0 mílí
Zataženo Nemnoho 18000 ft
Skoro zataženo 23000 ft
Skoro zataženo 26000 ft
Rosný bod 61 °F
Vlhkost 78%
Dešťové srážky 0.00 inčů
Sněhová pokrývka Není k dispozici
6:14 AM 7:41 PM
Ubývající měsíc, 46% visible
METAR KALB 251051Z 17008KT 10SM FEW180 BKN230 BKN260 20/17 A3005 RMK AO2 SLP176 T02000167
Tlak 30.05 inčů
Viditelnost 10.0 mílí
Zataženo Nemnoho 18000 ft
Skoro zataženo 23000 ft
Skoro zataženo 26000 ft
Rosný bod 61 °F
Vlhkost 78%
Dešťové srážky 0.00 inčů
Sněhová pokrývka Není k dispozici
6:14 AM 7:41 PM
Ubývající měsíc, 46% visible
METAR KALB 251051Z 17008KT 10SM FEW180 BKN230 BKN260 20/17 A3005 RMK AO2 SLP176 T02000167

10-Day Weather Forecast

Almanac

Astronomie

Aug. 25, 2016 Východ Západ
Skutečný čas
Občanský soumrak
Námořní soumrak
Astronomický soumrak
Měsíc
Délka denního světla
Délka dne
Tomorrow will be .
, % of the Moon is Illuminated

Dnešní extrémy

State Highs State Lows

Community

WunderPhotos

Upload Photos

1,934,822 snímků staženo!

WunderBlog® & News

Nearby

Kvalita ovzduší

  Kvalita ovzduší Index kvality ovzduší Polutant
Not available.

Výška sněhu

Station Hloubka Nadmořská výška

Seizmická činnost

Město Distance Mag. Čas & datum
Minimální zobrazený rozsah je 2.5.

Pobřežní teplota vody

Lokalita Teplota

Stations

Poblíž povětrnostní stanice

Lokace stanice Tepl. Ochlazování větrem Rosný bod Vlhkost Vítr Precip. Výška Čas hlášení Typ
                   

Watches & Warnings

There are currently no watches in effect.